• Join FlightAware (Why Join?)
  • Login
  • US Flag 
01:06PM EDT


 

Airport Tracker/Info


-or-


 

Live Flight TrackerFlight Track Log ✈ SWA430 ✈ 15-Apr-2013 ✈ KLAS - KPHL

Flight Track Log - Related Links

Times and Time Zones

All times are in EDT time to prevent confusion due to time zone crossing. See the SWA430 flight status page for this flight to view local times or setup timezone preferences in your user account.

Time Position Orientation Groundspeed Altitude Reporting Facility
EDT Latitude Longitude Course Direction KTS MPH feet Rate Location/Type
07:50PM 36.0761 -115.1683 271° West 147 169 3,400  Level Los Angeles Center
07:50PM 36.0764 -115.1894 271° West 172 198 3,900 2,040 Climbing Los Angeles Center
07:51PM 36.0764 -115.2586 270° West 216 249 5,900 2,100 Climbing Los Angeles Center
07:52PM 36.1103 -115.2914 322° Northwest 255 293 7,500 1,980 Climbing Los Angeles Center
07:53PM 36.1728 -115.2547 25° Northeast 277 319 9,600 1,980 Climbing Los Angeles Center
07:54PM 36.1986 -115.1272 76° East 334 384 11,700 1,980 Climbing Los Angeles Center
07:55PM 36.1950 -114.9972 92° East 377 434 13,700 1,860 Climbing Los Angeles Center
07:56PM 36.1986 -114.8575 88° East 402 463 15,600 1,860 Climbing Los Angeles Center
07:57PM 36.1992 -114.7072 90° East 433 498 17,600 2,220 Climbing Los Angeles Center
07:58PM 36.1958 -114.5536 91° East 446 513 20,200 2,100 Climbing Los Angeles Center
07:59PM 36.1936 -114.3939 91° East 460 529 22,000 1,680 Climbing Los Angeles Center
08:00PM 36.1942 -114.2286 90° East 476 548 23,700 1,800 Climbing Los Angeles Center
08:01PM 36.2183 -114.0261 82° East 494 568 25,800 1,620 Climbing Los Angeles Center
08:02PM 36.2389 -113.8550 81° East 501 577 27,100 1,140 Climbing Los Angeles Center
08:03PM 36.2589 -113.6781 82° East 514 592 28,200 1,020 Climbing Los Angeles Center
08:04PM 36.2811 -113.4964 81° East 530 610 29,300 1,140 Climbing Los Angeles Center
08:05PM 36.3019 -113.3144 82° East 533 613 30,600 1,260 Climbing Los Angeles Center
08:06PM 36.3392 -113.1319 76° East 536 617 32,000 1,500 Climbing Los Angeles Center
08:07PM 36.3875 -112.9222 74° East 531 611 33,700 1,080 Climbing Los Angeles Center
08:08PM 36.4231 -112.7833 72° East 531 611 34,300 600 Climbing Los Angeles Center
08:09PM 36.4761 -112.5719 73° East 535 616 35,000 300 Climbing Los Angeles Center
08:10PM 36.5208 -112.3950 72° East 539 620 35,000  Level Los Angeles Center
08:11PM 36.5653 -112.2178 73° East 540 621 35,000  Level Los Angeles Center
08:12PM 36.6086 -112.0383 73° East 544 626 35,000  Level Los Angeles Center
08:12PM 36.6261 -111.9672 73° East 543 625 35,000  Level Denver Center
08:14PM 36.6711 -111.7883 73° East 544 626 35,000  Level Denver Center
08:15PM 36.7125 -111.6117 74° East 538 619 35,000  Level Denver Center
08:16PM 36.7553 -111.4339 73° East 537 618 35,000  Level Denver Center
08:17PM 36.7981 -111.2561 73° East 537 618 35,000  Level Denver Center
08:18PM 36.8408 -111.0789 73° East 536 617 35,000  Level Denver Center
08:19PM 36.8869 -110.8694 75° East 530 610 35,000  Level Denver Center
08:20PM 36.9283 -110.6925 74° East 533 613 35,000  Level Denver Center
08:21PM 36.9689 -110.5147 74° East 533 613 35,000  Level Denver Center
08:22PM 37.0100 -110.3367 74° East 535 616 35,000  Level Denver Center
08:23PM 37.0511 -110.1489 75° East 537 618 35,000  Level Denver Center
08:24PM 37.0903 -109.9756 74° East 540 621 35,000  Level Denver Center
08:25PM 37.1353 -109.7750 74° East 536 617 35,000  Level Denver Center
08:26PM 37.1733 -109.6036 74° East 534 615 35,000  Level Denver Center
08:27PM 37.2164 -109.4067 75° East 525 604 35,000  Level Denver Center
08:28PM 37.2533 -109.2350 75° East 530 610 35,000  Level Denver Center
08:29PM 37.2969 -109.0356 75° East 529 609 35,000  Level Denver Center
08:30PM 37.3328 -108.8664 75° East 524 603 35,000 120 Level Denver Center
08:31PM 37.3697 -108.6936 75° East 532 612 35,300 720 Climbing Denver Center
08:32PM 37.4128 -108.4894 75° East 540 621 36,500 780 Climbing Denver Center
08:33PM 37.4486 -108.3181 75° East 533 613 37,000 240 Climbing Denver Center
08:34PM 37.4903 -108.1142 75° East 535 616 37,000  Level Denver Center
08:35PM 37.5256 -107.9383 76° East 538 619 37,000  Level Denver Center
08:36PM 37.5600 -107.7672 76° East 534 615 37,000  Level Denver Center
08:37PM 37.6025 -107.5667 75° East 530 610 37,000  Level Denver Center
08:38PM 37.6369 -107.3897 76° East 537 618 37,000  Level Denver Center
08:39PM 37.6769 -107.1886 76° East 531 611 37,000  Level Denver Center
08:40PM 37.7100 -107.0192 76° East 522 601 37,000  Level Denver Center
08:41PM 37.7433 -106.8467 76° East 526 605 37,000  Level Denver Center
08:42PM 37.7819 -106.6439 76° East 532 612 37,000  Level Denver Center
08:43PM 37.8150 -106.4708 76° East 529 609 37,000  Level Denver Center
08:44PM 37.8519 -106.2806 76° East 515 593 37,000  Level Denver Center
08:45PM 37.8842 -106.1103 76° East 522 601 37,000  Level Denver Center
08:46PM 37.9203 -105.9092 77° East 526 605 37,000  Level Denver Center
08:47PM 37.9533 -105.7378 76° East 523 602 37,000  Level Denver Center
08:48PM 37.9906 -105.5306 77° East 538 619 37,000  Level Denver Center
08:49PM 38.0222 -105.3519 77° East 541 623 37,000  Level Denver Center
08:50PM 38.0536 -105.1808 77° East 524 603 37,000  Level Denver Center
08:52PM 38.0892 -104.9797 77° East 520 598 37,000  Level Denver Center
08:53PM 38.1208 -104.8028 77° East 530 610 37,000  Level Denver Center
08:54PM 38.1514 -104.6225 78° East 541 623 37,000  Level Denver Center
08:55PM 38.1864 -104.4164 78° East 533 613 37,000  Level Denver Center
08:56PM 38.2264 -104.1781 78° East 536 617 37,000  Level Denver Center
08:57PM 38.2631 -103.9681 77° East 540 621 37,000  Level Denver Center
08:58PM 38.2978 -103.7553 78° East 546 628 37,000  Level Denver Center
08:59PM 38.3272 -103.5733 78° East 545 627 37,000  Level Denver Center
09:00PM 38.3572 -103.3867 78° East 544 626 37,000  Level Denver Center
09:01PM 38.3914 -103.1764 78° East 543 625 37,000  Level Denver Center
09:02PM 38.4197 -102.9994 78° East 534 615 37,000  Level Denver Center
09:03PM 38.4464 -102.8222 79° East 532 612 37,000  Level Denver Center
09:04PM 38.4786 -102.6172 79° East 526 605 37,000  Level Denver Center
09:05PM 38.5050 -102.4439 79° East 520 598 37,000  Level Denver Center
09:06PM 38.5367 -102.2397 79° East 525 604 37,000  Level Denver Center
09:07PM 38.5631 -102.0656 79° East 522 601 37,000  Level Denver Center
09:08PM 38.5892 -101.8906 79° East 523 602 37,000  Level Denver Center
09:09PM 38.6194 -101.6844 79° East 526 605 37,000  Level Denver Center
09:10PM 38.6447 -101.5067 80° East 528 608 37,000  Level Denver Center
09:11PM 38.6747 -101.3003 79° East 527 606 37,000  Level Denver Center
09:12PM 38.7000 -101.1225 80° East 528 608 37,000  Level Denver Center
09:13PM 38.7247 -100.9456 80° East 527 606 37,000  Level Denver Center
09:14PM 38.7531 -100.7394 80° East 525 604 37,000  Level Denver Center
09:15PM 38.7772 -100.5658 80° East 520 598 37,000  Level Denver Center
09:17PM 38.8014 -100.3914 80° East 518 596 37,000  Level Denver Center
09:18PM 38.8283 -100.1867 80° East 519 597 37,000  Level Denver Center
09:19PM 38.8517 -100.0114 80° East 519 597 37,000  Level Denver Center
09:20PM 38.8783 -99.8072 80° East 519 597 37,000  Level Denver Center
09:21PM 38.8997 -99.6294 81° East 525 604 37,000  Level Denver Center
09:22PM 38.9222 -99.4533 81° East 524 603 37,000  Level Denver Center
09:23PM 38.9478 -99.2478 81° East 521 600 37,000  Level Denver Center
09:24PM 38.9778 -99.0094 81° East 527 606 37,000  Level Denver Center
09:25PM 38.9942 -98.8739 81° East 531 611 37,000  Level Kansas City Center
09:26PM 39.0164 -98.6839 81° East 536 617 37,000  Level Kansas City Center
09:27PM 39.0397 -98.4936 81° East 538 619 37,000  Level Kansas City Center
09:28PM 39.0619 -98.3022 81° East 540 621 37,000  Level Kansas City Center
09:29PM 39.0822 -98.1106 82° East 539 620 37,000  Level Kansas City Center
09:30PM 39.1047 -97.9194 81° East 539 620 37,000  Level Kansas City Center
09:31PM 39.1303 -97.6919 82° East 533 613 37,000  Level Kansas City Center
09:32PM 39.1503 -97.5117 82° East 531 611 37,000  Level Kansas City Center
09:33PM 39.1700 -97.3317 82° East 529 609 37,000  Level Kansas City Center
09:34PM 39.1925 -97.1250 82° East 522 601 37,000  Level Kansas City Center
09:35PM 39.2108 -96.9458 82° East 525 604 37,000  Level Kansas City Center
09:36PM 39.2317 -96.7364 83° East 527 606 37,000  Level Kansas City Center
09:37PM 39.2500 -96.5558 82° East 529 609 37,000  Level Kansas City Center
09:38PM 39.2667 -96.3764 83° East 532 612 37,000  Level Kansas City Center
09:39PM 39.2856 -96.1875 83° East 531 611 37,000  Level Kansas City Center
09:40PM 39.3056 -95.9803 83° East 534 615 37,000  Level Kansas City Center
09:41PM 39.3253 -95.7675 83° East 534 615 37,000  Level Kansas City Center
09:42PM 39.3425 -95.5856 83° East 532 612 37,000  Level Kansas City Center
09:43PM 39.3600 -95.3808 84° East 533 613 37,000  Level Kansas City Center
09:44PM 39.3778 -95.1911 83° East 532 612 37,000  Level Kansas City Center
09:45PM 39.3944 -95.0000 84° East 531 611 37,000  Level Kansas City Center
09:46PM 39.4100 -94.8164 84° East 533 613 37,000  Level Kansas City Center
09:47PM 39.4278 -94.6019 84° East 536 617 37,000  Level Kansas City Center
09:48PM 39.4431 -94.4181 84° East 537 618 37,000  Level Kansas City Center
09:49PM 39.4578 -94.2350 84° East 535 616 37,000  Level Kansas City Center
09:50PM 39.4742 -94.0217 84° East 534 615 37,000  Level Kansas City Center
09:51PM 39.4881 -93.8394 84° East 533 613 37,000  Level Kansas City Center
09:52PM 39.5028 -93.6597 84° East 536 617 37,000  Level Kansas City Center
09:53PM 39.5194 -93.4333 84° East 532 612 37,000  Level Kansas City Center
09:54PM 39.5328 -93.2489 85° East 527 606 37,000  Level Kansas City Center
09:55PM 39.5467 -93.0611 84° East 528 608 37,000  Level Kansas City Center
09:56PM 39.5583 -92.8706 85° East 534 615 37,000  Level Kansas City Center
09:58PM 39.5711 -92.6825 85° East 534 615 37,000  Level Kansas City Center
09:59PM 39.5822 -92.4972 85° East 528 608 37,000  Level Kansas City Center
10:00PM 39.5969 -92.2711 85° East 529 609 37,000  Level Kansas City Center
10:01PM 39.6083 -92.0836 85° East 529 609 37,000  Level Kansas City Center
10:02PM 39.6197 -91.8953 85° East 530 610 37,000  Level Kansas City Center
10:03PM 39.6308 -91.7067 86° East 530 610 37,000  Level Kansas City Center
10:04PM 39.6417 -91.5186 86° East 530 610 37,000  Level Kansas City Center
10:05PM 39.6514 -91.3306 86° East 529 609 37,000  Level Kansas City Center
10:06PM 39.6622 -91.1369 86° East 528 608 37,000  Level Kansas City Center
10:07PM 39.6728 -90.9461 86° East 528 608 37,000  Level Kansas City Center
10:08PM 39.6831 -90.7233 86° East 520 598 37,000  Level Kansas City Center
10:09PM 39.6919 -90.5342 86° East 523 602 37,000  Level Kansas City Center
10:10PM 39.7017 -90.3456 86° East 523 602 37,000  Level Kansas City Center
10:11PM 39.7094 -90.1589 87° East 521 600 37,000  Level Kansas City Center
10:12PM 39.7178 -89.9722 87° East 519 597 37,000  Level Kansas City Center
10:13PM 39.7244 -89.7869 87° East 519 597 37,000  Level Kansas City Center
10:14PM 39.7322 -89.5997 87° East 521 600 37,000  Level Kansas City Center
10:15PM 39.7400 -89.4142 87° East 519 597 37,000  Level Kansas City Center
10:16PM 39.7456 -89.2294 88° East 516 594 37,000  Level Kansas City Center
10:17PM 39.7519 -89.0458 87° East 513 590 37,000  Level Kansas City Center
10:18PM 39.7594 -88.8264 87° East 510 587 37,000  Level Kansas City Center
10:19PM 39.7658 -88.6442 87° East 508 585 37,000  Level Kansas City Center
10:20PM 39.7714 -88.4619 88° East 506 582 37,000  Level Kansas City Center
10:21PM 39.7794 -88.2756 87° East 513 590 37,000  Level Kansas City Center
10:22PM 39.7933 -88.0783 85° East 507 583 37,000  Level Indianapolis Center
10:23PM 39.8111 -87.8967 83° East 506 582 37,000  Level Indianapolis Center
10:24PM 39.8278 -87.7131 83° East 506 582 37,000  Level Indianapolis Center
10:25PM 39.8444 -87.5300 83° East 507 583 37,000  Level Indianapolis Center
10:26PM 39.8619 -87.3461 83° East 509 586 37,000  Level Indianapolis Center
10:27PM 39.8775 -87.1614 84° East 509 586 37,000  Level Indianapolis Center
10:28PM 39.8942 -86.9753 83° East 513 590 37,000  Level Indianapolis Center
10:29PM 39.9106 -86.7906 83° East 513 590 37,000  Level Indianapolis Center
10:30PM 39.9236 -86.6428 83° East 511 588 37,000  Level Indianapolis Center
10:31PM 39.9392 -86.4569 84° East 513 590 37,000  Level Indianapolis Center
10:32PM 39.9536 -86.2814 84° East 512 589 37,000  Level Chicago Center
10:33PM 39.9694 -86.0869 84° East 511 588 37,000  Level Indianapolis Center
10:35PM 39.9981 -85.7253 84° East 508 585 37,000  Level Indianapolis Center
10:36PM 40.0111 -85.5403 85° East 508 585 37,000  Level Indianapolis Center
10:37PM 40.0253 -85.3542 84° East 511 588 37,000  Level Indianapolis Center
10:38PM 40.0389 -85.1681 84° East 511 588 37,000  Level Indianapolis Center
10:39PM 40.0531 -84.9842 84° East 507 583 37,000  Level Indianapolis Center
10:40PM 40.0656 -84.7967 85° East 513 590 37,000  Level Indianapolis Center
10:41PM 40.0783 -84.6114 85° East 510 587 37,000  Level Indianapolis Center
10:42PM 40.0906 -84.4261 85° East 508 585 37,000  Level Indianapolis Center
10:43PM 40.1011 -84.2411 86° East 506 582 37,000  Level Indianapolis Center
10:44PM 40.1136 -84.0561 85° East 504 580 37,000  Level Indianapolis Center
10:45PM 40.1247 -83.8706 85° East 505 581 37,000  Level Indianapolis Center
10:46PM 40.1361 -83.6831 85° East 509 586 37,000  Level Indianapolis Center
10:47PM 40.1464 -83.4956 86° East 507 583 37,000  Level Indianapolis Center
10:48PM 40.1567 -83.3081 86° East 507 583 37,000  Level Indianapolis Center
10:50PM 40.1767 -82.9361 86° East 506 582 37,000  Level Indianapolis Center
10:51PM 40.1864 -82.7514 86° East 504 580 37,000  Level Indianapolis Center
10:52PM 40.1953 -82.5669 86° East 503 579 37,000  Level Indianapolis Center
10:53PM 40.2042 -82.3839 86° East 500 575 37,000  Level Indianapolis Center
10:54PM 40.2131 -82.2008 86° East 500 575 37,000  Level Indianapolis Center
10:55PM 40.2217 -81.9856 87° East 504 580 37,000  Level Indianapolis Center
10:56PM 40.2300 -81.8006 87° East 505 581 37,000  Level Indianapolis Center
10:57PM 40.2364 -81.6308 87° East 495 570 37,000  Level Indianapolis Center
10:58PM 40.2425 -81.5186 86° East 492 566 37,000  Level Cleveland Center
10:59PM 40.2628 -81.3422 81° East 492 566 37,000  Level Cleveland Center
11:00PM 40.3219 -81.1850 64° Northeast 480 552 37,000  Level Cleveland Center
11:01PM 40.3872 -81.0328 61° Northeast 473 544 37,000  Level Cleveland Center
11:02PM 40.4544 -80.8833 59° Northeast 473 544 37,000  Level Cleveland Center
11:03PM 40.5153 -80.7278 63° Northeast 473 544 37,000  Level Cleveland Center
11:04PM 40.5175 -80.5503 89° East 465 535 37,000  Level Cleveland Center
11:05PM 40.4986 -80.3728 98° East 465 535 37,000  Level Cleveland Center
11:06PM 40.4750 -80.1847 99° East 472 543 37,000  Level Cleveland Center
11:07PM 40.4597 -80.0100 96° East 478 550 37,000  Level Cleveland Center
11:08PM 40.4483 -79.8275 95° East 488 562 37,000  Level Cleveland Center
11:09PM 40.4367 -79.6528 95° East 488 562 37,000  Level Cleveland Center
11:10PM 40.4225 -79.4786 96° East 488 562 37,000  Level Cleveland Center
11:11PM 40.4103 -79.3014 95° East 483 556 37,000  Level Cleveland Center
11:12PM 40.3939 -79.1492 98° East 475 547 37,000  Level Cleveland Center
11:13PM 40.3811 -78.9750 95° East 475 547 37,000  Level Cleveland Center
11:14PM 40.3658 -78.7983 96° East 481 554 37,000  Level Cleveland Center
11:15PM 40.3547 -78.6242 95° East 481 554 37,000  Level Cleveland Center
11:17PM 40.3253 -78.3075 97° East 487 560 37,000  Level New York Center
11:18PM 40.3114 -78.1292 96° East 487 560 37,000  Level New York Center
11:19PM 40.2969 -77.9586 96° East 487 560 37,000  Level New York Center
11:20PM 40.2839 -77.7967 96° East 487 560 37,000 -1,740 Level New York Center
11:22PM 40.3002 -77.4697 90° East  Level FlightAware Approximate
11:23PM 40.2297 -77.2472 90° East 487 560 30,200  Level New York Center
11:24PM 40.2142 -77.0719 97° East 487 560 27,700 -2,340 Descending New York Center
11:25PM 40.1978 -76.9072 97° East 482 555 25,500 -2,640 Descending New York Center
11:26PM 40.1761 -76.6450 96° East 433 498 21,000 -2,640 Descending FAA TRACON SMA TRACON (SMA)
11:27PM 40.1739 -76.5961 93° East 426 490 20,400 -1,680 Descending FAA TRACON SMA TRACON (SMA)
11:27PM 40.1669 -76.5497 101° East 414 476 19,900 -1,740 Descending FAA TRACON SMA TRACON (SMA)
11:27PM 40.1619 -76.5064 99° East 388 447 19,300 -1,500 Descending FAA TRACON SMA TRACON (SMA)
11:28PM 40.1581 -76.4653 97° East 383 441 18,900 -1,680 Descending FAA TRACON SMA TRACON (SMA)
11:28PM 40.1528 -76.4136 98° East 374 430 18,200 -1,800 Descending FAA TRACON SMA TRACON (SMA)
11:28PM 40.1478 -76.3722 99° East 375 432 17,700 -1,080 Descending FAA TRACON SMA TRACON (SMA)
11:29PM 40.1431 -76.3314 99° East 373 429 17,500 -1,380 Descending FAA TRACON SMA TRACON (SMA)
11:29PM 40.1378 -76.2797 98° East 372 428 16,800 -1,800 Descending FAA TRACON SMA TRACON (SMA)
11:29PM 40.1336 -76.2397 98° East 369 425 16,300 -1,620 Descending FAA TRACON SMA TRACON (SMA)
11:30PM 40.1294 -76.1992 98° East 368 423 15,700 -1,980 Descending FAA TRACON SMA TRACON (SMA)
11:30PM 40.1247 -76.1506 97° East 367 422 15,000 -1,980 Descending FAA TRACON SMA TRACON (SMA)
11:30PM 40.1197 -76.1083 99° East 365 420 14,400 -1,680 Descending FAA TRACON SMA TRACON (SMA)
11:31PM 40.1156 -76.0683 98° East 364 419 13,900 -1,800 Descending FAA TRACON SMA TRACON (SMA)
11:31PM 40.1100 -76.0192 98° East 359 413 13,200 -1,500 Descending FAA TRACON SMA TRACON (SMA)
11:31PM 40.0914 -75.9892 129° Southeast 369 425 12,900 -1,080 Descending FAA TRACON SMA TRACON (SMA)
11:32PM 40.0644 -75.9753 158° South 343 395 12,500 -1,080 Descending FAA TRACON SMA TRACON (SMA)
11:32PM 40.0311 -75.9647 166° South 322 371 12,200 -900 Descending FAA TRACON SMA TRACON (SMA)
11:32PM 40.0053 -75.9567 167° South 320 368 11,900 -1,200 Descending FAA TRACON SMA TRACON (SMA)
11:33PM 39.9725 -75.9456 165° South 312 359 11,400 -1,200 Descending FAA TRACON SMA TRACON (SMA)
11:33PM 39.9475 -75.9372 166° South 307 353 11,100 -1,200 Descending FAA TRACON SMA TRACON (SMA)
11:33PM 39.9225 -75.9283 165° South 305 351 10,600 -1,500 Descending FAA TRACON SMA TRACON (SMA)
11:34PM 39.8983 -75.9200 165° South 300 345 10,100 -1,500 Descending FAA TRACON SMA TRACON (SMA)
11:34PM 39.8689 -75.9100 165° South 292 336 9,600 -1,200 Descending FAA TRACON SMA TRACON (SMA)
11:34PM 39.8453 -75.9019 165° South 285 328 9,300 -1,200 Descending FAA TRACON SMA TRACON (SMA)
11:35PM 39.8169 -75.8922 165° South 280 322 8,800 -1,680 Descending FAA TRACON SMA TRACON (SMA)
11:35PM 39.7978 -75.8750 145° Southeast 293 337 8,200 -1,500 Descending FAA TRACON SMA TRACON (SMA)
11:35PM 39.7894 -75.8461 111° Southeast 278 320 7,800 -1,500 Descending FAA TRACON SMA TRACON (SMA)
11:36PM 39.7797 -75.8086 109° East 291 335 7,200 -1,500 Descending FAA TRACON SMA TRACON (SMA)
11:36PM 39.7733 -75.7775 105° East 287 330 6,800 -1,080 Descending FAA TRACON SMA TRACON (SMA)
11:36PM 39.7681 -75.7475 103° East 280 322 6,500 -1,080 Descending FAA TRACON SMA TRACON (SMA)
11:37PM 39.7714 -75.7089 84° East 284 327 6,100 -1,200 Descending FAA TRACON SMA TRACON (SMA)
11:37PM 39.7767 -75.6811 76° East 280 322 5,700 -1,260 Descending FAA TRACON SMA TRACON (SMA)
11:37PM 39.7836 -75.6497 74° East 282 325 5,300 -1,200 Descending FAA TRACON SMA TRACON (SMA)
11:38PM 39.7931 -75.6117 72° East 279 321 4,900 -900 Descending FAA TRACON SMA TRACON (SMA)
11:38PM 39.7992 -75.5836 74° East 267 307 4,700 -780 Descending FAA TRACON SMA TRACON (SMA)
11:38PM 39.8036 -75.5581 77° East 238 274 4,400 -1,080 Descending FAA TRACON SMA TRACON (SMA)
11:39PM 39.8094 -75.5286 76° East 221 254 4,000 -1,080 Descending FAA TRACON SMA TRACON (SMA)
11:39PM 39.8139 -75.5078 74° East 214 246 3,700 -900 Descending FAA TRACON SMA TRACON (SMA)
11:39PM 39.8197 -75.4853 71° East 209 241 3,400 -1,200 Descending FAA TRACON SMA TRACON (SMA)
11:40PM 39.8247 -75.4586 76° East 197 227 2,900 -1,200 Descending FAA TRACON SMA TRACON (SMA)
11:40PM 39.8275 -75.4392 79° East 184 212 2,600 -780 Descending FAA TRACON SMA TRACON (SMA)
11:40PM 39.8311 -75.4203 76° East 177 204 2,400 -900 Descending FAA TRACON SMA TRACON (SMA)
11:41PM 39.8361 -75.3975 74° East 176 203 2,000 -1,080 Descending FAA TRACON SMA TRACON (SMA)
11:41PM 39.8408 -75.3786 72° East 174 200 1,700 -900 Descending FAA TRACON SMA TRACON (SMA)
11:41PM 39.8436 -75.3622 78° East 148 170 1,400 -900 Descending FAA TRACON SMA TRACON (SMA)
11:42PM 39.8472 -75.3433 76° East 141 162 1,100 -780 Descending FAA TRACON SMA TRACON (SMA)
11:42PM 39.8503 -75.3278 76° East 143 165 900 -660 Descending FAA TRACON SMA TRACON (SMA)
11:42PM 39.8533 -75.3119 76° East 145 167 700 -780 Descending FAA TRACON SMA TRACON (SMA)
11:43PM 39.8572 -75.2925 75° East 144 166 400 -900 Descending FAA TRACON SMA TRACON (SMA)
11:43PM 39.8603 -75.2775 75° East 141 162 100 -300 Descending FAA TRACON SMA TRACON (SMA)
11:44PM 39.8603 -75.2775 180° South 141 162 100  Level FAA TRACON SMA TRACON (SMA)